Munising, MI

10:39 PM EDT on June 01, 2015 (GMT -0400)
RAWS | | Change Station
CLOSE
Current Station
Personal Weather Station
Location: Munising, MI
Elevation: 771 ft
Nearby Weather Stations
Active Advisory: Frost Advisory Active Notice: Record Report

Elev 771 ft 46.43 °N, 86.62 °W | Updated 40 minutes ago

Clear
Clear
43 °F
Feels Like 43 °F
N
1
Wind Variable Wind from ESE
Gusts 2.0 mph

Today
High -- | Low -- °F
--% Chance of Precip.
Yesterday
High -- | Low -- °F
Precip. -- in
5:57 AM 9:31 PM
Full, 100% visible
Pressure 30.23 in
Visibility 10.0 miles
Clouds Clear
Windchill 43 °F
Dew Point 41 °F
Humidity 92%
Rainfall in
Snow Depth Not available.
UV 0 out of 12
Pollen 7.70 out of 12
Air Quality Not available.
Flu Activity Sporadic
METAR KSAW 020217Z AUTO 16003KT 10SM CLR 12/03 A3023 RMK AO2 T01230033

More Conditions Fewer Conditions

Pressure 30.23 in
Visibility 10.0 miles
Clouds Clear
Windchill 43 °F
Dew Point 41 °F
Humidity 92%
Rainfall in
Snow Depth Not available.
UV 0 out of 12
Pollen 7.70 out of 12
Air Quality Not available.
Flu Activity Sporadic
METAR KSAW 020217Z AUTO 16003KT 10SM CLR 12/03 A3023 RMK AO2 T01230033

More Conditions Fewer Conditions

10-Day Weather Forecast

Almanac

Astronomy

Jun. 01, 2015 Rise Set
Actual Time
Civil Twilight
Nautical Twilight
Astronomical Twilight
Moon
Length of Visible Light
Length of Day
Tomorrow will be .
, % of the Moon is Illuminated

Today's Extremes

State Highs State Lows

Community

WunderPhotos

Upload Photos

1,825,858 photos uploaded!

WunderBlogs® & News

Nearby

Air Quality

  Air Quality AQ Index Pollutant
Not available.

Snow Depth

Station Depth Elevation

Earthquake Activity

City Distance Mag. Time & Date
Minimum magnitude displayed is 2.5.

Coastal Water Temperatures

Place Temperature

Stations

Nearby Weather Stations

Station Location Temp. Windchill Dew Point Humidity Wind Precip. Elev Updated Type
                   
Frost Advisory
Statement as of 2:37 PM EDT on June 01, 2015

... Frost advisory in effect from 2 am EDT /1 am CDT/ to 8 am EDT
/7 am CDT/ Tuesday...

The National Weather Service in Marquette has issued a frost
advisory... which is in effect from 2 am EDT /1 am CDT/ to 8 am
EDT /7 am CDT/ Tuesday.

Hazardous weather...

* frost is expected to develop across portions of Upper Michigan
   away from Lake Superior tonight.

* The lowest temperatures are expected inland from the Lake Superior
   shoreline. Lows will be in the low to mid 30s upper 20s inland and
   in the upper 30s to around 40 along the Great Lakes shorelines.

Impacts...

* sensitive plants and vegetation could be damaged if not protected
   or brought inside tonight.

Precautionary/preparedness actions...

* a frost advisory means that frost is possible.

* Prepare... plan... and stay informed. Visit www.Weather.Gov/MQT



Titus